sensor_id;sensor_type;location;lat;lon;timestamp;pressure;altitude;pressure_sealevel;temperature;humidity
13732;BME280;6937;56.096;12.664;2023-07-30T00:00:39;96744.97;;;18.29;100.00
13732;BME280;6937;56.096;12.664;2023-07-30T00:03:04;96762.25;;;18.28;100.00
13732;BME280;6937;56.096;12.664;2023-07-30T00:05:30;96767.16;;;18.31;100.00
13732;BME280;6937;56.096;12.664;2023-07-30T00:07:56;96773.13;;;18.33;100.00
13732;BME280;6937;56.096;12.664;2023-07-30T00:10:21;96775.25;;;18.31;100.00
13732;BME280;6937;56.096;12.664;2023-07-30T00:12:47;96783.13;;;18.32;100.00
13732;BME280;6937;56.096;12.664;2023-07-30T00:15:12;96787.94;;;18.30;100.00
13732;BME280;6937;56.096;12.664;2023-07-30T00:17:38;96792.81;;;18.28;100.00
13732;BME280;6937;56.096;12.664;2023-07-30T00:20:05;96819.03;;;18.28;100.00
13732;BME280;6937;56.096;12.664;2023-07-30T00:22:31;96822.78;;;18.27;100.00
13732;BME280;6937;56.096;12.664;2023-07-30T00:24:56;96819.25;;;18.26;100.00
13732;BME280;6937;56.096;12.664;2023-07-30T00:27:22;96828.47;;;18.25;100.00
13732;BME280;6937;56.096;12.664;2023-07-30T00:29:47;96832.44;;;18.18;100.00
13732;BME280;6937;56.096;12.664;2023-07-30T00:32:13;96850.78;;;18.16;100.00
13732;BME280;6937;56.096;12.664;2023-07-30T00:34:41;96846.44;;;18.15;100.00
13732;BME280;6937;56.096;12.664;2023-07-30T00:37:06;96855.88;;;18.12;100.00
13732;BME280;6937;56.096;12.664;2023-07-30T00:39:32;96855.56;;;18.09;100.00
13732;BME280;6937;56.096;12.664;2023-07-30T00:41:57;96860.72;;;18.10;100.00
13732;BME280;6937;56.096;12.664;2023-07-30T00:44:22;96871.47;;;18.05;100.00
13732;BME280;6937;56.096;12.664;2023-07-30T00:46:49;96868.22;;;18.03;100.00
13732;BME280;6937;56.096;12.664;2023-07-30T00:49:14;96868.53;;;18.07;100.00
13732;BME280;6937;56.096;12.664;2023-07-30T00:51:40;96870.91;;;18.03;100.00
13732;BME280;6937;56.096;12.664;2023-07-30T00:54:06;96879.50;;;18.00;100.00
13732;BME280;6937;56.096;12.664;2023-07-30T00:56:32;96879.78;;;17.99;100.00
13732;BME280;6937;56.096;12.664;2023-07-30T00:58:58;96891.88;;;17.96;100.00
13732;BME280;6937;56.096;12.664;2023-07-30T01:01:23;96897.28;;;17.96;100.00
13732;BME280;6937;56.096;12.664;2023-07-30T01:03:50;96895.91;;;17.94;100.00
13732;BME280;6937;56.096;12.664;2023-07-30T01:06:15;96919.41;;;17.93;100.00
13732;BME280;6937;56.096;12.664;2023-07-30T01:08:41;96918.03;;;17.91;100.00
13732;BME280;6937;56.096;12.664;2023-07-30T01:11:07;96927.78;;;17.92;100.00
13732;BME280;6937;56.096;12.664;2023-07-30T01:13:35;96935.31;;;17.90;100.00
13732;BME280;6937;56.096;12.664;2023-07-30T01:16:01;96948.50;;;17.86;100.00
13732;BME280;6937;56.096;12.664;2023-07-30T01:18:28;96954.63;;;17.81;100.00
13732;BME280;6937;56.096;12.664;2023-07-30T01:20:57;96960.84;;;17.82;100.00
13732;BME280;6937;56.096;12.664;2023-07-30T01:23:23;96980.59;;;17.82;100.00
13732;BME280;6937;56.096;12.664;2023-07-30T01:25:48;96986.22;;;17.81;100.00
13732;BME280;6937;56.096;12.664;2023-07-30T01:28:19;96991.88;;;17.79;100.00
13732;BME280;6937;56.096;12.664;2023-07-30T01:30:45;96980.34;;;17.84;100.00
13732;BME280;6937;56.096;12.664;2023-07-30T01:33:11;96983.06;;;17.84;100.00
13732;BME280;6937;56.096;12.664;2023-07-30T01:35:38;96975.78;;;17.84;100.00
13732;BME280;6937;56.096;12.664;2023-07-30T01:38:04;96963.31;;;17.83;100.00
13732;BME280;6937;56.096;12.664;2023-07-30T01:40:31;96957.97;;;17.88;100.00
13732;BME280;6937;56.096;12.664;2023-07-30T01:42:57;96956.91;;;17.90;100.00
13732;BME280;6937;56.096;12.664;2023-07-30T01:45:23;96893.41;;;17.87;100.00
13732;BME280;6937;56.096;12.664;2023-07-30T01:47:48;96898.22;;;17.85;100.00
13732;BME280;6937;56.096;12.664;2023-07-30T01:50:13;96898.50;;;17.83;100.00
13732;BME280;6937;56.096;12.664;2023-07-30T01:52:39;96900.16;;;17.84;100.00
13732;BME280;6937;56.096;12.664;2023-07-30T01:55:05;96902.50;;;17.81;100.00
13732;BME280;6937;56.096;12.664;2023-07-30T01:57:30;96918.59;;;17.71;100.00
13732;BME280;6937;56.096;12.664;2023-07-30T01:59:56;96917.22;;;17.68;100.00
13732;BME280;6937;56.096;12.664;2023-07-30T02:02:21;96918.44;;;17.61;100.00
13732;BME280;6937;56.096;12.664;2023-07-30T02:04:47;96927.88;;;17.58;100.00
13732;BME280;6937;56.096;12.664;2023-07-30T02:07:12;96916.38;;;17.51;100.00
13732;BME280;6937;56.096;12.664;2023-07-30T02:09:38;96916.06;;;17.48;100.00
13732;BME280;6937;56.096;12.664;2023-07-30T02:12:03;96907.66;;;17.44;100.00
13732;BME280;6937;56.096;12.664;2023-07-30T02:14:29;96914.88;;;17.38;100.00
13732;BME280;6937;56.096;12.664;2023-07-30T02:16:54;96912.91;;;17.34;100.00
13732;BME280;6937;56.096;12.664;2023-07-30T02:19:19;96915.53;;;17.29;100.00
13732;BME280;6937;56.096;12.664;2023-07-30T02:21:45;96900.66;;;17.26;100.00
13732;BME280;6937;56.096;12.664;2023-07-30T02:24:11;96905.72;;;17.23;100.00
13732;BME280;6937;56.096;12.664;2023-07-30T02:26:37;96896.25;;;17.20;100.00
13732;BME280;6937;56.096;12.664;2023-07-30T02:29:03;96890.53;;;17.17;100.00
13732;BME280;6937;56.096;12.664;2023-07-30T02:31:29;96911.31;;;17.16;100.00
13732;BME280;6937;56.096;12.664;2023-07-30T02:33:54;96907.47;;;17.12;100.00
13732;BME280;6937;56.096;12.664;2023-07-30T02:36:20;96904.66;;;17.07;100.00
13732;BME280;6937;56.096;12.664;2023-07-30T02:38:45;96912.44;;;17.04;100.00
13732;BME280;6937;56.096;12.664;2023-07-30T02:41:10;96907.03;;;17.04;100.00
13732;BME280;6937;56.096;12.664;2023-07-30T02:43:36;96901.31;;;17.00;100.00
13732;BME280;6937;56.096;12.664;2023-07-30T02:46:01;96917.75;;;16.99;100.00
13732;BME280;6937;56.096;12.664;2023-07-30T02:48:27;96911.47;;;16.93;100.00
13732;BME280;6937;56.096;12.664;2023-07-30T02:50:52;96915.47;;;16.90;100.00
13732;BME280;6937;56.096;12.664;2023-07-30T02:53:18;96921.94;;;16.89;100.00
13732;BME280;6937;56.096;12.664;2023-07-30T02:55:43;96922.97;;;16.88;100.00
13732;BME280;6937;56.096;12.664;2023-07-30T02:58:08;96921.34;;;16.87;100.00
13732;BME280;6937;56.096;12.664;2023-07-30T03:00:34;96927.00;;;16.86;100.00
13732;BME280;6937;56.096;12.664;2023-07-30T03:02:59;96923.97;;;16.82;100.00
13732;BME280;6937;56.096;12.664;2023-07-30T03:05:26;96918.00;;;16.80;100.00
13732;BME280;6937;56.096;12.664;2023-07-30T03:07:52;96926.56;;;16.77;100.00
13732;BME280;6937;56.096;12.664;2023-07-30T03:10:18;96926.00;;;16.75;100.00
13732;BME280;6937;56.096;12.664;2023-07-30T03:12:43;96931.13;;;16.77;100.00
13732;BME280;6937;56.096;12.664;2023-07-30T03:15:09;96937.59;;;16.76;100.00
13732;BME280;6937;56.096;12.664;2023-07-30T03:17:34;96935.38;;;16.73;100.00
13732;BME280;6937;56.096;12.664;2023-07-30T03:20:00;96939.94;;;16.72;100.00
13732;BME280;6937;56.096;12.664;2023-07-30T03:22:25;96948.03;;;16.72;100.00
13732;BME280;6937;56.096;12.664;2023-07-30T03:24:51;96951.00;;;16.71;100.00
13732;BME280;6937;56.096;12.664;2023-07-30T03:27:16;96955.00;;;16.68;100.00
13732;BME280;6937;56.096;12.664;2023-07-30T03:29:41;96959.81;;;16.66;100.00
13732;BME280;6937;56.096;12.664;2023-07-30T03:32:07;96971.41;;;16.67;100.00
13732;BME280;6937;56.096;12.664;2023-07-30T03:34:33;96974.09;;;16.67;100.00
13732;BME280;6937;56.096;12.664;2023-07-30T03:36:58;96979.72;;;16.65;100.00
13732;BME280;6937;56.096;12.664;2023-07-30T03:39:26;96977.84;;;16.66;100.00
13732;BME280;6937;56.096;12.664;2023-07-30T03:41:51;96992.06;;;16.61;100.00
13732;BME280;6937;56.096;12.664;2023-07-30T03:44:17;97005.78;;;16.60;100.00
13732;BME280;6937;56.096;12.664;2023-07-30T03:46:43;96970.97;;;16.58;100.00
13732;BME280;6937;56.096;12.664;2023-07-30T03:49:08;96880.63;;;16.56;100.00
13732;BME280;6937;56.096;12.664;2023-07-30T03:51:34;96893.16;;;16.50;100.00
13732;BME280;6937;56.096;12.664;2023-07-30T03:53:59;96913.91;;;16.50;100.00
13732;BME280;6937;56.096;12.664;2023-07-30T03:56:25;96909.59;;;16.49;100.00
13732;BME280;6937;56.096;12.664;2023-07-30T03:58:50;96914.50;;;16.52;100.00
13732;BME280;6937;56.096;12.664;2023-07-30T04:01:16;96869.50;;;16.52;100.00
13732;BME280;6937;56.096;12.664;2023-07-30T04:03:41;96862.59;;;16.56;100.00
13732;BME280;6937;56.096;12.664;2023-07-30T04:06:06;96858.81;;;16.57;100.00
13732;BME280;6937;56.096;12.664;2023-07-30T04:08:32;96858.81;;;16.57;100.00
13732;BME280;6937;56.096;12.664;2023-07-30T04:10:57;96855.06;;;16.58;100.00
13732;BME280;6937;56.096;12.664;2023-07-30T04:13:23;96852.22;;;16.65;100.00
13732;BME280;6937;56.096;12.664;2023-07-30T04:15:48;96846.75;;;16.60;100.00
13732;BME280;6937;56.096;12.664;2023-07-30T04:18:14;96834.09;;;16.60;100.00
13732;BME280;6937;56.096;12.664;2023-07-30T04:20:39;96823.56;;;16.59;100.00
13732;BME280;6937;56.096;12.664;2023-07-30T04:23:05;96826.13;;;16.54;100.00
13732;BME280;6937;56.096;12.664;2023-07-30T04:25:30;96827.56;;;16.56;100.00
13732;BME280;6937;56.096;12.664;2023-07-30T04:27:56;96827.56;;;16.56;100.00
13732;BME280;6937;56.096;12.664;2023-07-30T04:30:21;96813.59;;;16.59;100.00
13732;BME280;6937;56.096;12.664;2023-07-30T04:32:47;96810.41;;;16.62;100.00
13732;BME280;6937;56.096;12.664;2023-07-30T04:35:12;96803.22;;;16.68;100.00
13732;BME280;6937;56.096;12.664;2023-07-30T04:37:38;96786.53;;;16.71;100.00
13732;BME280;6937;56.096;12.664;2023-07-30T04:40:03;96771.75;;;16.73;100.00
13732;BME280;6937;56.096;12.664;2023-07-30T04:42:29;96755.06;;;16.76;100.00
13732;BME280;6937;56.096;12.664;2023-07-30T04:44:55;96739.72;;;16.77;100.00
13732;BME280;6937;56.096;12.664;2023-07-30T04:47:20;96726.50;;;16.75;100.00
13732;BME280;6937;56.096;12.664;2023-07-30T04:49:46;96725.50;;;16.81;100.00
13732;BME280;6937;56.096;12.664;2023-07-30T04:52:11;96713.38;;;16.84;100.00
13732;BME280;6937;56.096;12.664;2023-07-30T04:54:36;96693.13;;;16.81;100.00
13732;BME280;6937;56.096;12.664;2023-07-30T04:57:03;96689.69;;;16.86;100.00
13732;BME280;6937;56.096;12.664;2023-07-30T04:59:28;96671.66;;;16.86;100.00
13732;BME280;6937;56.096;12.664;2023-07-30T05:01:54;96655.28;;;16.93;100.00
13732;BME280;6937;56.096;12.664;2023-07-30T05:04:19;96628.09;;;17.00;100.00
13732;BME280;6937;56.096;12.664;2023-07-30T05:06:45;96620.28;;;16.98;100.00
13732;BME280;6937;56.096;12.664;2023-07-30T05:09:10;96605.47;;;17.01;100.00
13732;BME280;6937;56.096;12.664;2023-07-30T05:11:38;96589.09;;;17.07;100.00
13732;BME280;6937;56.096;12.664;2023-07-30T05:14:03;96569.13;;;17.08;100.00
13732;BME280;6937;56.096;12.664;2023-07-30T05:16:29;96561.28;;;17.07;100.00
13732;BME280;6937;56.096;12.664;2023-07-30T05:18:54;96545.63;;;17.04;100.00
13732;BME280;6937;56.096;12.664;2023-07-30T05:21:20;96534.63;;;17.10;100.00
13732;BME280;6937;56.096;12.664;2023-07-30T05:23:46;96521.41;;;17.09;100.00
13732;BME280;6937;56.096;12.664;2023-07-30T05:26:11;96505.56;;;17.17;100.00
13732;BME280;6937;56.096;12.664;2023-07-30T05:28:36;96502.84;;;17.17;100.00
13732;BME280;6937;56.096;12.664;2023-07-30T05:31:02;96492.34;;;17.16;100.00
13732;BME280;6937;56.096;12.664;2023-07-30T05:33:27;96474.28;;;17.16;100.00
13732;BME280;6937;56.096;12.664;2023-07-30T05:35:52;96484.53;;;17.19;100.00
13732;BME280;6937;56.096;12.664;2023-07-30T05:38:18;96472.16;;;17.23;100.00
13732;BME280;6937;56.096;12.664;2023-07-30T05:40:43;96458.44;;;17.30;100.00
13732;BME280;6937;56.096;12.664;2023-07-30T05:43:09;96453.34;;;17.33;100.00
13732;BME280;6937;56.096;12.664;2023-07-30T05:45:34;96432.34;;;17.40;100.00
13732;BME280;6937;56.096;12.664;2023-07-30T05:48:00;96429.97;;;17.49;100.00
13732;BME280;6937;56.096;12.664;2023-07-30T05:50:26;96425.38;;;17.45;100.00
13732;BME280;6937;56.096;12.664;2023-07-30T05:52:51;96425.06;;;17.41;100.00
13732;BME280;6937;56.096;12.664;2023-07-30T05:55:17;96419.94;;;17.39;100.00
13732;BME280;6937;56.096;12.664;2023-07-30T05:57:42;96427.72;;;17.36;100.00
13732;BME280;6937;56.096;12.664;2023-07-30T06:00:08;96424.72;;;17.32;100.00
13732;BME280;6937;56.096;12.664;2023-07-30T06:02:34;96420.72;;;17.35;100.00
13732;BME280;6937;56.096;12.664;2023-07-30T06:04:59;96414.84;;;17.43;100.00
13732;BME280;6937;56.096;12.664;2023-07-30T06:07:25;96390.84;;;17.52;100.00
13732;BME280;6937;56.096;12.664;2023-07-30T06:09:50;96393.31;;;17.53;100.00
13732;BME280;6937;56.096;12.664;2023-07-30T06:12:16;96392.28;;;17.59;100.00
13732;BME280;6937;56.096;12.664;2023-07-30T06:14:41;96380.94;;;17.62;100.00
13732;BME280;6937;56.096;12.664;2023-07-30T06:17:06;96369.09;;;17.63;100.00
13732;BME280;6937;56.096;12.664;2023-07-30T06:19:32;96366.63;;;17.57;100.00
13732;BME280;6937;56.096;12.664;2023-07-30T06:21:57;96373.13;;;17.61;100.00
13732;BME280;6937;56.096;12.664;2023-07-30T06:24:23;96366.66;;;17.67;100.00
13732;BME280;6937;56.096;12.664;2023-07-30T06:26:48;96361.34;;;17.77;100.00
13732;BME280;6937;56.096;12.664;2023-07-30T06:29:14;96438.81;;;17.76;100.00
13732;BME280;6937;56.096;12.664;2023-07-30T06:31:40;96449.34;;;17.73;100.00
13732;BME280;6937;56.096;12.664;2023-07-30T06:34:05;96507.34;;;17.70;100.00
13732;BME280;6937;56.096;12.664;2023-07-30T06:36:31;96520.84;;;17.65;100.00
13732;BME280;6937;56.096;12.664;2023-07-30T06:38:56;96513.81;;;17.64;100.00
13732;BME280;6937;56.096;12.664;2023-07-30T06:41:22;96525.66;;;17.63;100.00
13732;BME280;6937;56.096;12.664;2023-07-30T06:43:47;96522.72;;;17.70;100.00
13732;BME280;6937;56.096;12.664;2023-07-30T06:46:13;96561.06;;;17.67;100.00
13732;BME280;6937;56.096;12.664;2023-07-30T06:48:38;96518.16;;;17.70;100.00
13732;BME280;6937;56.096;12.664;2023-07-30T06:51:09;96519.00;;;17.76;100.00
13732;BME280;6937;56.096;12.664;2023-07-30T06:53:34;96521.19;;;17.79;100.00
13732;BME280;6937;56.096;12.664;2023-07-30T06:56:00;96518.28;;;17.91;100.00
13732;BME280;6937;56.096;12.664;2023-07-30T06:58:25;96531.31;;;17.99;100.00
13732;BME280;6937;56.096;12.664;2023-07-30T07:00:51;96520.03;;;18.07;100.00
13732;BME280;6937;56.096;12.664;2023-07-30T07:03:17;96523.31;;;18.19;100.00
13732;BME280;6937;56.096;12.664;2023-07-30T07:05:43;96539.56;;;18.24;100.00
13732;BME280;6937;56.096;12.664;2023-07-30T07:08:08;96587.94;;;18.30;100.00
13732;BME280;6937;56.096;12.664;2023-07-30T07:10:34;96584.22;;;18.42;100.00
13732;BME280;6937;56.096;12.664;2023-07-30T07:12:59;96613.78;;;18.53;100.00
13732;BME280;6937;56.096;12.664;2023-07-30T07:15:24;96620.06;;;18.64;100.00
13732;BME280;6937;56.096;12.664;2023-07-30T07:17:50;96639.34;;;18.77;100.00
13732;BME280;6937;56.096;12.664;2023-07-30T07:20:15;96672.31;;;18.74;100.00
13732;BME280;6937;56.096;12.664;2023-07-30T07:22:41;96736.66;;;18.72;100.00
13732;BME280;6937;56.096;12.664;2023-07-30T07:25:07;96802.56;;;18.61;100.00
13732;BME280;6937;56.096;12.664;2023-07-30T07:27:32;96829.38;;;18.68;100.00
13732;BME280;6937;56.096;12.664;2023-07-30T07:29:58;96847.59;;;18.77;100.00
13732;BME280;6937;56.096;12.664;2023-07-30T07:32:24;96865.03;;;18.92;100.00
13732;BME280;6937;56.096;12.664;2023-07-30T07:34:50;96863.50;;;19.06;100.00
13732;BME280;6937;56.096;12.664;2023-07-30T07:37:16;96931.16;;;19.06;100.00
13732;BME280;6937;56.096;12.664;2023-07-30T07:39:44;96995.56;;;19.04;100.00
13732;BME280;6937;56.096;12.664;2023-07-30T07:42:10;97027.03;;;19.15;100.00
13732;BME280;6937;56.096;12.664;2023-07-30T07:44:36;97067.34;;;19.11;100.00
13732;BME280;6937;56.096;12.664;2023-07-30T07:47:01;97107.00;;;19.01;100.00
13732;BME280;6937;56.096;12.664;2023-07-30T07:49:27;97138.91;;;18.99;100.00
13732;BME280;6937;56.096;12.664;2023-07-30T07:51:52;97138.06;;;19.20;100.00
13732;BME280;6937;56.096;12.664;2023-07-30T07:54:18;97150.63;;;19.31;100.00
13732;BME280;6937;56.096;12.664;2023-07-30T07:56:43;97210.78;;;19.33;100.00
13732;BME280;6937;56.096;12.664;2023-07-30T07:59:09;97257.88;;;19.32;100.00
13732;BME280;6937;56.096;12.664;2023-07-30T08:01:34;97254.81;;;19.45;100.00
13732;BME280;6937;56.096;12.664;2023-07-30T08:04:00;97313.22;;;19.41;100.00
13732;BME280;6937;56.096;12.664;2023-07-30T08:06:25;97354.81;;;19.35;100.00
13732;BME280;6937;56.096;12.664;2023-07-30T08:08:51;97386.25;;;19.36;100.00
13732;BME280;6937;56.096;12.664;2023-07-30T08:11:16;97411.69;;;19.35;100.00
13732;BME280;6937;56.096;12.664;2023-07-30T08:13:42;97464.13;;;19.29;100.00
13732;BME280;6937;56.096;12.664;2023-07-30T08:16:07;97488.19;;;19.42;100.00
13732;BME280;6937;56.096;12.664;2023-07-30T08:18:33;97538.41;;;19.50;100.00
13732;BME280;6937;56.096;12.664;2023-07-30T08:21:00;97568.13;;;19.61;100.00
13732;BME280;6937;56.096;12.664;2023-07-30T08:23:25;97600.81;;;19.71;100.00
13732;BME280;6937;56.096;12.664;2023-07-30T08:25:51;97677.59;;;19.60;100.00
13732;BME280;6937;56.096;12.664;2023-07-30T08:28:16;97718.69;;;19.57;100.00
13732;BME280;6937;56.096;12.664;2023-07-30T08:30:41;97761.06;;;19.63;100.00
13732;BME280;6937;56.096;12.664;2023-07-30T08:33:07;97788.13;;;19.75;100.00
13732;BME280;6937;56.096;12.664;2023-07-30T08:35:33;97808.00;;;19.81;100.00
13732;BME280;6937;56.096;12.664;2023-07-30T08:37:59;97862.56;;;19.72;100.00
13732;BME280;6937;56.096;12.664;2023-07-30T08:40:24;97888.16;;;19.65;100.00
13732;BME280;6937;56.096;12.664;2023-07-30T08:42:51;97889.47;;;19.62;100.00
13732;BME280;6937;56.096;12.664;2023-07-30T08:45:17;97925.75;;;19.50;100.00
13732;BME280;6937;56.096;12.664;2023-07-30T08:47:44;97938.50;;;19.49;100.00
13732;BME280;6937;56.096;12.664;2023-07-30T08:50:10;97941.91;;;19.56;100.00
13732;BME280;6937;56.096;12.664;2023-07-30T08:52:36;97942.22;;;19.71;100.00
13732;BME280;6937;56.096;12.664;2023-07-30T08:55:03;97942.44;;;19.82;100.00
13732;BME280;6937;56.096;12.664;2023-07-30T08:57:29;97980.88;;;19.78;100.00
13732;BME280;6937;56.096;12.664;2023-07-30T09:00:09;97981.69;;;19.91;100.00
13732;BME280;6937;56.096;12.664;2023-07-30T09:02:43;98020.81;;;19.83;100.00
13732;BME280;6937;56.096;12.664;2023-07-30T09:05:11;98023.03;;;19.98;100.00
13732;BME280;6937;56.096;12.664;2023-07-30T09:07:36;98047.44;;;19.98;100.00
13732;BME280;6937;56.096;12.664;2023-07-30T09:10:02;98047.53;;;20.03;100.00
13732;BME280;6937;56.096;12.664;2023-07-30T09:12:29;98091.75;;;19.92;100.00
13732;BME280;6937;56.096;12.664;2023-07-30T09:14:56;98130.84;;;19.72;100.00
13732;BME280;6937;56.096;12.664;2023-07-30T09:17:24;98108.34;;;19.84;100.00
13732;BME280;6937;56.096;12.664;2023-07-30T09:19:51;98106.47;;;19.96;100.00
13732;BME280;6937;56.096;12.664;2023-07-30T09:22:35;98082.41;;;20.11;100.00
13732;BME280;6937;56.096;12.664;2023-07-30T09:25:04;98093.13;;;20.17;100.00
13732;BME280;6937;56.096;12.664;2023-07-30T09:27:31;98130.88;;;20.07;100.00
13732;BME280;6937;56.096;12.664;2023-07-30T09:29:58;98175.53;;;19.93;100.00
13732;BME280;6937;56.096;12.664;2023-07-30T09:32:28;98210.88;;;19.75;100.00
13732;BME280;6937;56.096;12.664;2023-07-30T09:34:54;98218.03;;;19.69;100.00
13732;BME280;6937;56.096;12.664;2023-07-30T09:37:20;98209.19;;;19.62;100.00
13732;BME280;6937;56.096;12.664;2023-07-30T09:39:48;98210.84;;;19.63;100.00
13732;BME280;6937;56.096;12.664;2023-07-30T09:42:13;98215.44;;;19.63;100.00
13732;BME280;6937;56.096;12.664;2023-07-30T09:44:39;98206.00;;;19.65;100.00
13732;BME280;6937;56.096;12.664;2023-07-30T09:47:09;98187.50;;;19.62;100.00
13732;BME280;6937;56.096;12.664;2023-07-30T09:49:38;98184.94;;;19.38;100.00
13732;BME280;6937;56.096;12.664;2023-07-30T09:52:05;98186.44;;;19.04;100.00
13732;BME280;6937;56.096;12.664;2023-07-30T09:54:31;98141.03;;;18.88;100.00
13732;BME280;6937;56.096;12.664;2023-07-30T09:56:58;98093.34;;;18.87;100.00
13732;BME280;6937;56.096;12.664;2023-07-30T09:59:24;98041.75;;;19.00;100.00
13732;BME280;6937;56.096;12.664;2023-07-30T10:01:50;98000.00;;;19.07;100.00
13732;BME280;6937;56.096;12.664;2023-07-30T10:04:19;97955.06;;;19.18;100.00
13732;BME280;6937;56.096;12.664;2023-07-30T10:06:52;97895.50;;;19.29;100.00
13732;BME280;6937;56.096;12.664;2023-07-30T10:09:21;97866.63;;;19.35;100.00
13732;BME280;6937;56.096;12.664;2023-07-30T10:11:50;97825.63;;;19.55;100.00
13732;BME280;6937;56.096;12.664;2023-07-30T10:14:17;97833.78;;;19.55;100.00
13732;BME280;6937;56.096;12.664;2023-07-30T10:16:53;97848.50;;;19.47;100.00
13732;BME280;6937;56.096;12.664;2023-07-30T10:19:23;97853.91;;;19.47;100.00
13732;BME280;6937;56.096;12.664;2023-07-30T10:21:50;97841.63;;;19.68;100.00
13732;BME280;6937;56.096;12.664;2023-07-30T10:24:15;97848.91;;;19.79;100.00
13732;BME280;6937;56.096;12.664;2023-07-30T10:26:41;97827.81;;;20.09;100.00
13732;BME280;6937;56.096;12.664;2023-07-30T10:31:40;97836.41;;;20.35;100.00
13732;BME280;6937;56.096;12.664;2023-07-30T10:34:07;97856.91;;;20.42;100.00
13732;BME280;6937;56.096;12.664;2023-07-30T10:36:40;97891.78;;;20.50;100.00
13732;BME280;6937;56.096;12.664;2023-07-30T10:39:13;97940.13;;;20.53;100.00
13732;BME280;6937;56.096;12.664;2023-07-30T10:41:39;97984.03;;;20.67;100.00
13732;BME280;6937;56.096;12.664;2023-07-30T10:44:04;98067.84;;;20.63;100.00
13732;BME280;6937;56.096;12.664;2023-07-30T10:46:30;98129.56;;;20.56;100.00
13732;BME280;6937;56.096;12.664;2023-07-30T10:48:55;98190.81;;;20.52;100.00
13732;BME280;6937;56.096;12.664;2023-07-30T10:51:21;98198.78;;;20.70;100.00
13732;BME280;6937;56.096;12.664;2023-07-30T10:53:49;98248.25;;;20.72;100.00
13732;BME280;6937;56.096;12.664;2023-07-30T10:56:17;98316.34;;;20.59;100.00
13732;BME280;6937;56.096;12.664;2023-07-30T10:58:43;98382.59;;;20.40;100.00
13732;BME280;6937;56.096;12.664;2023-07-30T11:01:14;98389.09;;;20.39;100.00
13732;BME280;6937;56.096;12.664;2023-07-30T11:03:39;98429.69;;;20.46;100.00
13732;BME280;6937;56.096;12.664;2023-07-30T11:06:05;98474.94;;;20.34;100.00
13732;BME280;6937;56.096;12.664;2023-07-30T11:08:34;98469.88;;;20.37;100.00
13732;BME280;6937;56.096;12.664;2023-07-30T11:11:01;98505.31;;;20.24;100.00
13732;BME280;6937;56.096;12.664;2023-07-30T11:13:27;98510.66;;;20.31;100.00
13732;BME280;6937;56.096;12.664;2023-07-30T11:15:53;98529.72;;;20.24;100.00
13732;BME280;6937;56.096;12.664;2023-07-30T11:18:18;98523.81;;;20.27;100.00
13732;BME280;6937;56.096;12.664;2023-07-30T11:20:44;98524.50;;;20.41;100.00
13732;BME280;6937;56.096;12.664;2023-07-30T11:23:20;98525.03;;;20.49;100.00
13732;BME280;6937;56.096;12.664;2023-07-30T11:25:46;98517.06;;;20.66;100.00
13732;BME280;6937;56.096;12.664;2023-07-30T11:28:13;98527.38;;;20.76;100.00
13732;BME280;6937;56.096;12.664;2023-07-30T11:30:38;98566.47;;;20.56;100.00
13732;BME280;6937;56.096;12.664;2023-07-30T11:33:04;98563.03;;;20.49;100.00
13732;BME280;6937;56.096;12.664;2023-07-30T11:35:29;98554.88;;;20.49;100.00
13732;BME280;6937;56.096;12.664;2023-07-30T11:37:55;98535.41;;;20.52;100.00
13732;BME280;6937;56.096;12.664;2023-07-30T11:40:23;98504.00;;;20.74;100.00
13732;BME280;6937;56.096;12.664;2023-07-30T11:42:49;98474.91;;;20.93;100.00
13732;BME280;6937;56.096;12.664;2023-07-30T11:45:20;98484.53;;;20.78;100.00
13732;BME280;6937;56.096;12.664;2023-07-30T11:47:47;98435.34;;;20.86;100.00
13732;BME280;6937;56.096;12.664;2023-07-30T11:50:14;98414.13;;;21.06;100.00
13732;BME280;6937;56.096;12.664;2023-07-30T11:52:56;98417.28;;;20.91;100.00
13732;BME280;6937;56.096;12.664;2023-07-30T11:55:22;98398.16;;;20.98;100.00
13732;BME280;6937;56.096;12.664;2023-07-30T11:57:50;98391.34;;;21.30;100.00
13732;BME280;6937;56.096;12.664;2023-07-30T12:00:15;98366.09;;;21.69;100.00
13732;BME280;6937;56.096;12.664;2023-07-30T12:02:41;98382.81;;;22.01;100.00
13732;BME280;6937;56.096;12.664;2023-07-30T12:05:10;98446.13;;;21.97;100.00
13732;BME280;6937;56.096;12.664;2023-07-30T12:07:39;98461.00;;;21.94;100.00
13732;BME280;6937;56.096;12.664;2023-07-30T12:10:12;98502.06;;;21.93;100.00
13732;BME280;6937;56.096;12.664;2023-07-30T12:12:45;98503.53;;;22.12;100.00
13732;BME280;6937;56.096;12.664;2023-07-30T12:15:11;98527.78;;;22.25;100.00
13732;BME280;6937;56.096;12.664;2023-07-30T12:17:38;98538.78;;;22.30;100.00
13732;BME280;6937;56.096;12.664;2023-07-30T12:20:04;98537.63;;;22.54;100.00
13732;BME280;6937;56.096;12.664;2023-07-30T12:22:32;98577.50;;;22.60;100.00
13732;BME280;6937;56.096;12.664;2023-07-30T12:25:00;98625.44;;;22.50;100.00
13732;BME280;6937;56.096;12.664;2023-07-30T12:27:25;98657.41;;;22.43;100.00
13732;BME280;6937;56.096;12.664;2023-07-30T12:29:51;98684.88;;;22.53;100.00
13732;BME280;6937;56.096;12.664;2023-07-30T12:32:16;98750.19;;;22.06;100.00
13732;BME280;6937;56.096;12.664;2023-07-30T12:34:42;98754.19;;;21.92;100.00
13732;BME280;6937;56.096;12.664;2023-07-30T12:37:07;98736.22;;;22.14;100.00
13732;BME280;6937;56.096;12.664;2023-07-30T12:39:32;98733.41;;;22.33;100.00
13732;BME280;6937;56.096;12.664;2023-07-30T12:41:58;98732.34;;;22.34;100.00
13732;BME280;6937;56.096;12.664;2023-07-30T12:44:23;98735.66;;;22.47;100.00
13732;BME280;6937;56.096;12.664;2023-07-30T12:46:49;98725.69;;;22.64;100.00